Time;durP1;ratioP1;P1;durP2;ratioP2;P2;SDS_P1;SDS_P2;PMS_P1;PMS_P2;Temp;Humidity;BMP_temperature;BMP_pressure;BME280_temperature;BME280_humidity;BME280_pressure;Samples;Min_cycle;Max_cycle;Signal;HPM_P1;HPM_P2
2023/11/22 00:01:12;;;;;;;1.98;1.50;;;6.60;70.50;;;;;;5006958;28;20566;-77
2023/11/22 00:03:39;;;;;;;1.67;1.40;;;6.60;70.50;;;;;;5007515;28;20120;-76
2023/11/22 00:06:07;;;;;;;1.98;1.33;;;6.70;70.60;;;;;;5006676;28;20034;-77
2023/11/22 00:08:34;;;;;;;2.25;1.58;;;6.70;70.60;;;;;;5007101;28;20026;-76
2023/11/22 00:11:00;;;;;;;1.73;1.63;;;6.70;70.60;;;;;;5007576;28;20042;-76
2023/11/22 00:13:26;;;;;;;2.25;1.38;;;6.70;70.60;;;;;;5007547;28;20045;-79
2023/11/22 00:15:51;;;;;;;2.03;1.73;;;6.70;70.50;;;;;;5008002;28;20034;-78
2023/11/22 00:18:17;;;;;;;1.50;1.33;;;6.70;70.70;;;;;;5007841;28;20042;-78
2023/11/22 00:20:43;;;;;;;1.50;1.40;;;6.70;70.70;;;;;;5008586;28;20038;-78
2023/11/22 00:23:09;;;;;;;1.48;1.38;;;6.70;70.80;;;;;;5007111;28;20038;-77
2023/11/22 00:25:35;;;;;;;1.70;1.55;;;6.70;70.60;;;;;;5007411;28;20084;-77
2023/11/22 00:28:02;;;;;;;1.48;1.38;;;6.60;70.70;;;;;;5008057;28;20124;-77
2023/11/22 00:30:28;;;;;;;2.13;1.20;;;6.70;70.80;;;;;;5006593;28;20034;-78
2023/11/22 00:32:54;;;;;;;1.60;1.50;;;6.60;70.80;;;;;;5005525;28;20041;-77
2023/11/22 00:35:20;;;;;;;1.80;1.70;;;6.60;71.00;;;;;;5006326;28;20555;-77
2023/11/22 00:37:46;;;;;;;1.58;1.48;;;6.60;70.80;;;;;;5006354;28;20065;-77
2023/11/22 00:40:13;;;;;;;2.72;1.60;;;6.60;70.90;;;;;;5008039;28;20550;-78
2023/11/22 00:42:41;;;;;;;1.55;1.27;;;6.60;71.00;;;;;;5005877;28;20044;-78
2023/11/22 00:45:09;;;;;;;2.38;1.63;;;6.60;70.90;;;;;;5013968;28;20792;-78
2023/11/22 00:47:37;;;;;;;1.63;1.48;;;6.60;70.70;;;;;;5006711;28;20451;-77
2023/11/22 00:50:06;;;;;;;2.30;1.40;;;6.60;70.90;;;;;;5008072;28;20041;-78
2023/11/22 00:52:32;;;;;;;2.65;1.45;;;6.60;70.90;;;;;;5008748;28;20477;-79
2023/11/22 00:54:58;;;;;;;1.50;1.40;;;6.60;70.90;;;;;;5023021;28;20050;-78
2023/11/22 00:57:24;;;;;;;1.40;1.30;;;6.60;70.90;;;;;;5006119;28;20042;-78
2023/11/22 00:59:50;;;;;;;1.83;1.67;;;6.60;71.00;;;;;;4983994;28;20038;-78
2023/11/22 01:02:16;;;;;;;1.48;1.38;;;6.60;71.20;;;;;;5006415;28;20509;-78
2023/11/22 01:04:42;;;;;;;1.50;1.40;;;6.60;71.10;;;;;;5007928;28;20037;-78
2023/11/22 01:07:08;;;;;;;1.80;1.70;;;6.60;71.00;;;;;;5008016;28;20038;-78
2023/11/22 01:09:34;;;;;;;1.40;1.30;;;6.60;70.90;;;;;;5007642;28;20041;-79
2023/11/22 01:12:00;;;;;;;1.88;1.77;;;6.60;71.20;;;;;;5007906;28;20038;-78
2023/11/22 01:14:26;;;;;;;1.90;1.55;;;6.60;71.20;;;;;;5007130;28;20030;-78
2023/11/22 01:16:54;;;;;;;1.42;1.30;;;6.60;71.30;;;;;;5007187;28;20036;-78
2023/11/22 01:19:20;;;;;;;1.48;1.38;;;6.70;71.30;;;;;;5008373;28;20034;-78
2023/11/22 01:21:47;;;;;;;2.33;1.55;;;6.70;71.40;;;;;;5006153;28;20042;-77
2023/11/22 01:24:13;;;;;;;1.40;1.30;;;6.70;71.50;;;;;;5009155;28;20076;-78
2023/11/22 01:26:39;;;;;;;1.80;1.50;;;6.70;71.60;;;;;;4991349;28;20038;-78
2023/11/22 01:29:05;;;;;;;1.67;1.58;;;6.70;71.60;;;;;;5025553;28;20038;-77
2023/11/22 01:31:32;;;;;;;1.63;1.50;;;6.70;71.70;;;;;;5026266;28;20033;-78
2023/11/22 01:34:03;;;;;;;2.45;1.77;;;6.70;71.60;;;;;;5025279;28;20096;-78
2023/11/22 01:36:29;;;;;;;2.17;1.58;;;6.70;72.20;;;;;;5025745;28;20116;-80
2023/11/22 01:38:55;;;;;;;1.50;1.40;;;6.70;71.70;;;;;;5008787;28;20132;-77
2023/11/22 01:41:22;;;;;;;1.70;1.40;;;6.70;71.70;;;;;;5009778;28;20042;-77
2023/11/22 01:43:50;;;;;;;2.58;1.80;;;6.70;71.70;;;;;;5008717;28;20029;-78
2023/11/22 01:46:25;;;;;;;2.47;1.70;;;6.70;71.90;;;;;;5009767;28;20026;-78
2023/11/22 01:48:52;;;;;;;2.05;1.70;;;6.70;71.70;;;;;;5010619;28;20129;-78
2023/11/22 01:51:23;;;;;;;1.75;1.60;;;6.70;71.70;;;;;;5008760;28;20041;-77
2023/11/22 01:53:53;;;;;;;3.42;1.60;;;6.70;71.90;;;;;;5010283;28;20030;-78
2023/11/22 01:56:21;;;;;;;1.90;1.70;;;6.70;71.90;;;;;;5008343;28;20042;-79
2023/11/22 01:58:47;;;;;;;3.63;1.88;;;6.70;71.90;;;;;;5006217;28;20120;-77
2023/11/22 02:01:13;;;;;;;2.80;1.65;;;6.70;71.80;;;;;;5017022;28;20270;-77
2023/11/22 02:03:39;;;;;;;2.55;1.58;;;6.70;71.80;;;;;;5025097;28;20512;-79
2023/11/22 02:06:07;;;;;;;2.20;1.58;;;6.70;71.80;;;;;;5006037;28;20039;-78
2023/11/22 02:08:33;;;;;;;1.77;1.63;;;6.70;71.70;;;;;;5009540;28;20041;-78
2023/11/22 02:11:03;;;;;;;2.78;2.03;;;6.70;71.70;;;;;;5007986;28;20405;-79
2023/11/22 02:13:30;;;;;;;1.88;1.60;;;6.80;71.50;;;;;;5018255;28;20041;-77
2023/11/22 02:15:58;;;;;;;2.40;1.90;;;6.70;71.90;;;;;;5009290;28;20133;-78
2023/11/22 02:18:28;;;;;;;1.77;1.58;;;6.80;71.60;;;;;;5008085;28;20046;-78
2023/11/22 02:20:54;;;;;;;2.25;1.63;;;6.80;71.50;;;;;;5024483;28;20034;-77
2023/11/22 02:23:20;;;;;;;3.42;1.95;;;6.80;71.40;;;;;;5008176;28;20432;-77
2023/11/22 02:25:46;;;;;;;2.42;2.20;;;6.80;71.40;;;;;;4991805;28;20037;-78
2023/11/22 02:28:12;;;;;;;2.13;1.73;;;6.80;71.30;;;;;;5009144;28;22210;-76
2023/11/22 02:30:38;;;;;;;2.13;1.90;;;6.80;71.20;;;;;;5015249;28;20488;-78
2023/11/22 02:33:04;;;;;;;3.00;2.03;;;6.80;71.00;;;;;;5008089;28;20062;-76
2023/11/22 02:35:31;;;;;;;1.80;1.65;;;6.80;71.00;;;;;;5007749;28;20121;-77
2023/11/22 02:37:59;;;;;;;7.85;2.00;;;6.80;71.10;;;;;;5007297;28;20049;-78
2023/11/22 02:40:25;;;;;;;2.60;1.80;;;6.80;71.10;;;;;;5008946;28;20049;-77
2023/11/22 02:43:00;;;;;;;2.38;2.17;;;6.80;70.90;;;;;;5008462;28;20037;-77
2023/11/22 02:45:28;;;;;;;4.45;2.13;;;6.80;70.70;;;;;;5008235;28;20029;-77
2023/11/22 02:47:55;;;;;;;1.73;1.55;;;6.80;70.60;;;;;;5008197;28;20228;-77
2023/11/22 02:50:21;;;;;;;2.25;1.90;;;6.70;70.40;;;;;;5006760;28;20046;-77
2023/11/22 02:52:47;;;;;;;2.30;1.70;;;6.70;70.50;;;;;;5006888;28;20046;-76
2023/11/22 02:55:14;;;;;;;2.20;1.95;;;6.80;70.60;;;;;;5008393;28;20041;-76
2023/11/22 02:57:40;;;;;;;1.85;1.65;;;6.70;70.10;;;;;;5007107;28;20046;-79
2023/11/22 03:00:14;;;;;;;3.25;1.80;;;6.70;70.00;;;;;;5007269;28;20042;-79
2023/11/22 03:02:41;;;;;;;2.10;1.80;;;6.80;69.90;;;;;;5007135;28;20026;-77
2023/11/22 03:05:10;;;;;;;4.95;2.05;;;6.70;69.80;;;;;;5007768;28;20040;-78
2023/11/22 03:07:37;;;;;;;2.22;1.75;;;6.70;69.70;;;;;;5022265;28;20038;-79
2023/11/22 03:10:03;;;;;;;1.90;1.80;;;6.80;69.70;;;;;;5007504;28;20033;-77
2023/11/22 03:12:30;;;;;;;2.40;1.70;;;6.70;69.70;;;;;;5008171;28;20037;-77
2023/11/22 03:15:00;;;;;;;2.22;1.70;;;6.70;69.70;;;;;;5007940;28;20129;-78
2023/11/22 03:17:29;;;;;;;1.45;1.27;;;6.70;69.80;;;;;;4986094;28;20037;-76
2023/11/22 03:19:56;;;;;;;1.35;1.15;;;6.70;69.70;;;;;;5007327;28;20087;-78
2023/11/22 03:22:26;;;;;;;1.60;1.35;;;6.80;69.60;;;;;;5008262;28;20036;-78
2023/11/22 03:24:53;;;;;;;1.50;1.40;;;6.80;69.60;;;;;;5024256;28;20586;-77
2023/11/22 03:27:22;;;;;;;1.77;1.45;;;6.70;69.60;;;;;;5006958;28;20050;-78
2023/11/22 03:29:48;;;;;;;2.00;1.45;;;6.80;69.60;;;;;;5006501;28;20424;-77
2023/11/22 03:32:14;;;;;;;1.88;1.33;;;6.80;69.30;;;;;;5007505;28;20509;-77
2023/11/22 03:34:40;;;;;;;1.30;1.20;;;6.80;69.40;;;;;;5007705;28;20041;-77
2023/11/22 03:37:05;;;;;;;2.17;1.60;;;6.80;69.30;;;;;;5006458;28;20122;-76
2023/11/22 03:39:32;;;;;;;1.60;1.50;;;6.80;69.00;;;;;;5007527;28;20816;-77
2023/11/22 03:41:58;;;;;;;2.78;1.20;;;6.80;69.00;;;;;;5006258;28;20035;-77
2023/11/22 03:44:23;;;;;;;2.47;1.30;;;6.80;68.70;;;;;;5007151;28;20488;-77
2023/11/22 03:46:49;;;;;;;1.48;1.38;;;6.80;68.70;;;;;;5004256;28;20037;-75
2023/11/22 03:49:15;;;;;;;1.40;1.27;;;6.80;68.80;;;;;;5000742;28;20033;-78
2023/11/22 03:51:43;;;;;;;1.35;1.25;;;6.80;68.60;;;;;;5006727;28;20038;-77
2023/11/22 03:54:10;;;;;;;1.25;1.08;;;6.70;68.40;;;;;;5005637;28;20278;-77
2023/11/22 03:56:36;;;;;;;1.23;1.13;;;6.70;68.40;;;;;;5005918;28;20492;-75
2023/11/22 03:59:03;;;;;;;1.45;1.30;;;6.80;68.30;;;;;;5005941;28;20045;-78
2023/11/22 04:01:29;;;;;;;2.65;1.30;;;6.70;68.20;;;;;;5006334;28;20030;-77
2023/11/22 04:03:55;;;;;;;3.22;1.45;;;6.80;68.20;;;;;;5005821;28;20040;-77
2023/11/22 04:06:22;;;;;;;1.27;1.00;;;6.70;68.10;;;;;;5003440;28;20034;-77
2023/11/22 04:08:49;;;;;;;1.33;1.20;;;6.70;68.00;;;;;;4999129;28;20037;-76
2023/11/22 04:11:17;;;;;;;2.22;1.58;;;6.70;68.20;;;;;;5004055;28;20046;-77
2023/11/22 04:13:44;;;;;;;1.38;1.27;;;6.70;68.00;;;;;;5005840;28;20060;-77
2023/11/22 04:16:12;;;;;;;2.38;1.25;;;6.70;68.10;;;;;;5005523;28;20384;-77
2023/11/22 04:18:40;;;;;;;1.75;1.05;;;6.70;68.10;;;;;;5006860;28;20038;-76
2023/11/22 04:21:06;;;;;;;2.33;1.27;;;6.70;68.20;;;;;;5006410;28;20042;-76
2023/11/22 04:23:32;;;;;;;1.30;1.10;;;6.70;68.20;;;;;;5006580;28;20121;-78
2023/11/22 04:26:00;;;;;;;2.08;1.25;;;6.70;68.10;;;;;;5007316;28;20034;-77
2023/11/22 04:28:26;;;;;;;2.15;1.13;;;6.70;68.00;;;;;;5007269;28;20113;-76
2023/11/22 04:30:53;;;;;;;1.33;0.85;;;6.70;68.00;;;;;;5004736;28;20124;-77
2023/11/22 04:33:20;;;;;;;1.23;1.02;;;6.70;68.20;;;;;;5002782;28;20053;-81
2023/11/22 04:35:48;;;;;;;1.73;1.20;;;6.70;68.20;;;;;;5006456;28;20353;-76
2023/11/22 04:38:14;;;;;;;2.35;1.45;;;6.70;68.10;;;;;;5007399;28;20504;-78
2023/11/22 04:40:42;;;;;;;2.00;1.33;;;6.70;68.30;;;;;;5004882;28;20377;-79
2023/11/22 04:43:08;;;;;;;1.90;1.50;;;6.70;68.60;;;;;;5007383;28;20045;-77
2023/11/22 04:45:34;;;;;;;3.10;1.52;;;6.70;68.70;;;;;;5006282;28;20037;-77
2023/11/22 04:48:01;;;;;;;4.15;1.50;;;6.70;68.80;;;;;;5007352;28;20033;-76
2023/11/22 04:50:26;;;;;;;2.67;1.92;;;6.60;68.70;;;;;;5005434;28;20053;-78
2023/11/22 04:52:53;;;;;;;3.20;1.55;;;6.70;68.90;;;;;;5005834;28;20042;-76
2023/11/22 04:55:19;;;;;;;2.00;1.55;;;6.70;68.80;;;;;;5007099;28;20029;-76
2023/11/22 04:57:47;;;;;;;2.33;1.40;;;6.70;68.90;;;;;;5005816;28;20073;-77
2023/11/22 05:00:14;;;;;;;1.50;1.20;;;6.70;68.70;;;;;;5009442;28;20517;-77
2023/11/22 05:02:40;;;;;;;1.70;1.60;;;6.70;68.70;;;;;;5010447;28;20177;-77
2023/11/22 05:05:07;;;;;;;2.60;1.70;;;6.70;68.80;;;;;;5009978;28;20060;-77
2023/11/22 05:07:33;;;;;;;2.55;1.52;;;6.70;69.10;;;;;;5010213;28;20129;-77
2023/11/22 05:09:59;;;;;;;2.30;1.65;;;6.70;68.90;;;;;;5010259;28;20133;-79
2023/11/22 05:12:25;;;;;;;3.20;1.40;;;6.70;68.90;;;;;;5010132;28;20065;-78
2023/11/22 05:14:50;;;;;;;3.75;1.38;;;6.70;68.90;;;;;;5009988;28;20038;-78
2023/11/22 05:17:16;;;;;;;2.72;1.45;;;6.70;68.70;;;;;;5010144;28;20054;-78
2023/11/22 05:19:42;;;;;;;2.15;1.70;;;6.70;68.60;;;;;;5010626;28;20064;-78
2023/11/22 05:22:08;;;;;;;2.38;1.60;;;6.70;68.50;;;;;;5010256;28;20034;-78
2023/11/22 05:24:41;;;;;;;1.60;1.30;;;6.70;68.60;;;;;;5010154;28;20504;-78
2023/11/22 05:27:09;;;;;;;3.00;1.30;;;6.70;68.40;;;;;;5009163;28;20065;-78
2023/11/22 05:29:36;;;;;;;2.53;1.38;;;6.70;68.20;;;;;;5009110;28;20568;-78
2023/11/22 05:32:03;;;;;;;1.88;1.48;;;6.70;68.30;;;;;;5009486;28;20034;-77
2023/11/22 05:34:29;;;;;;;3.15;1.20;;;6.70;68.20;;;;;;5009979;28;20380;-77
2023/11/22 05:36:55;;;;;;;2.13;1.40;;;6.70;68.00;;;;;;5010155;28;20647;-78
2023/11/22 05:39:24;;;;;;;2.83;1.38;;;6.70;67.80;;;;;;5009709;28;20034;-78
2023/11/22 05:41:53;;;;;;;1.48;1.23;;;6.70;67.60;;;;;;5008998;28;20037;-78
2023/11/22 05:44:20;;;;;;;3.20;1.77;;;6.70;67.60;;;;;;5010356;28;20436;-86
2023/11/22 05:46:46;;;;;;;1.40;1.00;;;6.70;67.40;;;;;;4993173;28;20504;-86
2023/11/22 05:49:11;;;;;;;2.13;1.23;;;6.70;67.20;;;;;;5011721;28;20026;-84
2023/11/22 05:51:37;;;;;;;1.73;1.30;;;6.70;67.10;;;;;;4992438;28;20042;-85
2023/11/22 05:54:04;;;;;;;0.93;0.93;;;6.70;67.00;;;;;;4976183;28;20452;-85
2023/11/22 05:56:30;;;;;;;1.65;1.38;;;6.70;67.00;;;;;;5015071;28;20738;-89
2023/11/22 05:58:59;;;;;;;1.15;1.05;;;6.70;67.00;;;;;;5001193;28;20049;-83
2023/11/22 06:01:26;;;;;;;0.93;0.90;;;6.60;67.10;;;;;;5008199;28;20499;-82
2023/11/22 06:03:53;;;;;;;1.50;0.95;;;6.60;67.30;;;;;;4986141;28;20037;-83
2023/11/22 06:06:21;;;;;;;2.17;1.02;;;6.70;67.50;;;;;;5007111;28;20461;-83
2023/11/22 06:08:48;;;;;;;1.55;1.00;;;6.70;67.80;;;;;;4974562;28;20044;-83
2023/11/22 06:11:15;;;;;;;1.63;1.20;;;6.70;67.80;;;;;;5010628;28;20133;-84
2023/11/22 06:13:42;;;;;;;2.55;1.60;;;6.70;67.80;;;;;;5010980;28;20080;-84
2023/11/22 06:16:09;;;;;;;3.55;1.70;;;6.70;68.10;;;;;;4994996;28;20037;-84
2023/11/22 06:18:40;;;;;;;1.83;1.30;;;6.70;68.10;;;;;;5009166;28;20034;-86
2023/11/22 06:21:08;;;;;;;2.58;1.30;;;6.70;68.10;;;;;;5009895;28;20038;-83
2023/11/22 06:23:34;;;;;;;1.90;1.40;;;6.70;68.20;;;;;;4991350;28;20069;-83
2023/11/22 06:26:00;;;;;;;2.08;1.30;;;6.70;68.00;;;;;;5008810;28;20076;-82
2023/11/22 06:28:26;;;;;;;1.75;1.13;;;6.70;67.90;;;;;;5008454;28;20084;-85
2023/11/22 06:30:52;;;;;;;1.65;1.13;;;6.70;67.60;;;;;;4991889;28;20034;-86
2023/11/22 06:33:19;;;;;;;2.05;1.13;;;6.70;67.60;;;;;;4991807;28;20269;-84
2023/11/22 06:35:45;;;;;;;1.23;1.13;;;6.80;67.40;;;;;;5009184;28;20029;-86
2023/11/22 06:38:11;;;;;;;1.23;1.00;;;6.80;67.40;;;;;;4991740;28;20061;-86
2023/11/22 06:40:37;;;;;;;1.73;1.17;;;6.80;67.30;;;;;;5007789;28;20042;-79
2023/11/22 06:43:06;;;;;;;1.75;1.20;;;6.80;67.30;;;;;;5009321;28;20048;-80
2023/11/22 06:45:32;;;;;;;1.13;0.95;;;6.80;67.30;;;;;;5007450;28;20046;-79
2023/11/22 06:47:58;;;;;;;1.55;1.15;;;6.80;67.30;;;;;;5007655;28;20042;-79
2023/11/22 06:50:24;;;;;;;1.10;0.80;;;6.80;67.30;;;;;;5007394;28;20046;-81
2023/11/22 06:52:52;;;;;;;1.42;1.10;;;6.80;67.40;;;;;;5007803;28;20034;-79
2023/11/22 06:55:18;;;;;;;1.23;1.08;;;6.80;67.40;;;;;;5008751;28;20045;-79
2023/11/22 06:57:44;;;;;;;1.35;1.20;;;6.80;67.40;;;;;;5007904;28;20077;-79
2023/11/22 07:00:12;;;;;;;1.65;1.15;;;6.80;67.40;;;;;;5006874;28;20044;-78
2023/11/22 07:02:38;;;;;;;1.00;0.90;;;6.80;67.50;;;;;;5008001;28;20124;-80
2023/11/22 07:05:08;;;;;;;1.38;0.93;;;6.80;67.50;;;;;;5010997;28;20416;-82
2023/11/22 07:07:38;;;;;;;1.30;0.80;;;6.80;67.60;;;;;;5011356;28;20026;-87
2023/11/22 07:10:08;;;;;;;1.25;1.10;;;6.80;67.50;;;;;;4992724;28;20132;-78
2023/11/22 07:12:34;;;;;;;1.00;0.80;;;6.80;67.40;;;;;;5006559;28;20121;-78
2023/11/22 07:15:02;;;;;;;1.48;0.70;;;6.90;67.40;;;;;;5007254;28;20093;-79
2023/11/22 07:17:30;;;;;;;0.90;0.90;;;6.90;67.40;;;;;;5007147;28;20036;-79
2023/11/22 07:19:57;;;;;;;1.33;0.65;;;6.90;67.60;;;;;;5007182;28;20034;-77
2023/11/22 07:22:23;;;;;;;1.67;0.57;;;6.90;67.50;;;;;;5008181;28;20479;-79
2023/11/22 07:24:59;;;;;;;1.33;1.00;;;7.00;67.70;;;;;;5008456;28;20042;-80
2023/11/22 07:27:25;;;;;;;2.17;0.88;;;7.00;67.30;;;;;;5007532;28;20104;-78
2023/11/22 07:29:52;;;;;;;1.05;0.93;;;7.00;67.10;;;;;;5008200;28;20037;-80
2023/11/22 07:32:20;;;;;;;1.13;0.75;;;7.00;67.20;;;;;;5006786;28;20413;-79
2023/11/22 07:34:46;;;;;;;2.42;1.10;;;7.00;67.00;;;;;;5007806;28;20025;-79
2023/11/22 07:37:13;;;;;;;3.03;1.17;;;7.10;67.60;;;;;;5007065;28;20081;-80
2023/11/22 07:39:39;;;;;;;0.75;0.73;;;7.10;67.20;;;;;;5007710;28;20053;-78
2023/11/22 07:42:09;;;;;;;1.55;0.98;;;7.10;67.60;;;;;;5007899;28;20117;-79
2023/11/22 07:44:36;;;;;;;0.88;0.88;;;7.10;67.50;;;;;;5008116;28;20026;-78
2023/11/22 07:47:02;;;;;;;1.13;0.90;;;7.20;67.80;;;;;;5007645;28;20120;-79
2023/11/22 07:49:29;;;;;;;2.53;1.00;;;7.20;67.70;;;;;;5006696;28;20330;-77
2023/11/22 07:51:56;;;;;;;1.42;0.85;;;7.20;67.80;;;;;;5006515;28;20568;-77
2023/11/22 07:54:22;;;;;;;4.00;0.88;;;7.20;67.90;;;;;;5006472;28;20504;-78
2023/11/22 07:56:54;;;;;;;1.10;0.80;;;7.20;67.80;;;;;;5006759;28;20042;-78
2023/11/22 07:59:20;;;;;;;0.80;0.80;;;7.20;68.00;;;;;;5006800;28;20049;-77
2023/11/22 08:01:49;;;;;;;0.80;0.75;;;7.20;68.00;;;;;;5007632;28;20057;-77
2023/11/22 08:04:18;;;;;;;1.90;0.73;;;7.30;68.10;;;;;;5008159;28;20686;-78
2023/11/22 08:06:45;;;;;;;1.20;0.80;;;7.30;67.90;;;;;;5007031;28;20033;-78
2023/11/22 08:09:11;;;;;;;1.25;0.73;;;7.30;67.90;;;;;;5007114;28;20400;-80
2023/11/22 08:11:37;;;;;;;1.50;0.68;;;7.30;67.90;;;;;;5007816;28;20053;-79
2023/11/22 08:14:03;;;;;;;0.82;0.82;;;7.30;67.80;;;;;;5006319;28;20038;-79
2023/11/22 08:16:30;;;;;;;1.83;0.77;;;7.30;67.80;;;;;;5007650;28;20037;-81
2023/11/22 08:18:56;;;;;;;0.70;0.70;;;7.30;67.80;;;;;;5005028;28;20030;-80
2023/11/22 08:21:23;;;;;;;2.38;0.90;;;7.40;69.40;;;;;;5007483;28;20069;-79
2023/11/22 08:23:49;;;;;;;3.25;0.52;;;7.50;71.40;;;;;;5007758;28;20043;-80
2023/11/22 08:26:15;;;;;;;1.42;0.80;;;7.60;71.90;;;;;;5007001;28;20172;-81
2023/11/22 08:28:42;;;;;;;4.45;0.80;;;7.60;71.20;;;;;;5005930;28;20037;-80
2023/11/22 08:31:09;;;;;;;0.93;0.80;;;7.70;70.90;;;;;;4986902;28;20479;-80
2023/11/22 08:33:35;;;;;;;1.88;0.80;;;7.80;70.60;;;;;;5021648;28;20087;-80
2023/11/22 08:36:04;;;;;;;0.70;0.70;;;7.90;69.90;;;;;;5006223;28;20037;-80
2023/11/22 08:38:33;;;;;;;1.45;0.80;;;8.00;69.40;;;;;;5007210;28;20839;-81
2023/11/22 08:41:06;;;;;;;1.42;0.82;;;8.10;68.20;;;;;;5005981;28;20037;-79
2023/11/22 08:43:32;;;;;;;3.47;0.82;;;8.20;67.60;;;;;;5011013;28;20025;-81
2023/11/22 08:45:59;;;;;;;2.63;0.90;;;8.30;66.80;;;;;;5011847;28;20519;-80
2023/11/22 08:48:25;;;;;;;1.23;0.85;;;8.40;66.30;;;;;;5011003;28;20428;-81
2023/11/22 08:50:53;;;;;;;1.30;0.90;;;8.40;65.20;;;;;;5013747;28;20046;-80
2023/11/22 08:53:20;;;;;;;2.72;1.20;;;8.50;64.40;;;;;;5013140;28;20042;-79
2023/11/22 08:55:47;;;;;;;7.47;0.98;;;8.50;64.40;;;;;;5011368;28;20045;-78
2023/11/22 08:58:13;;;;;;;0.82;0.82;;;8.60;63.40;;;;;;5026605;28;20062;-75
2023/11/22 09:00:41;;;;;;;0.88;0.77;;;8.60;65.20;;;;;;5010914;28;20399;-76
2023/11/22 09:03:08;;;;;;;0.77;0.77;;;8.70;64.30;;;;;;5003868;28;20030;-76
2023/11/22 09:05:36;;;;;;;1.00;0.88;;;8.70;63.10;;;;;;5009116;28;20115;-76
2023/11/22 09:08:04;;;;;;;0.88;0.82;;;8.70;61.50;;;;;;5007400;28;20073;-77
2023/11/22 09:10:30;;;;;;;1.08;0.90;;;8.70;60.70;;;;;;5011525;28;20030;-77
2023/11/22 09:12:59;;;;;;;0.80;0.70;;;8.70;59.40;;;;;;5009339;28;20030;-76
2023/11/22 09:15:26;;;;;;;1.10;1.02;;;8.70;58.90;;;;;;5009039;28;20034;-77
2023/11/22 09:17:53;;;;;;;1.58;1.27;;;8.60;58.20;;;;;;5006293;28;20061;-78
2023/11/22 09:20:20;;;;;;;1.50;1.05;;;8.60;57.70;;;;;;5005822;28;20497;-78
2023/11/22 09:22:48;;;;;;;1.05;0.95;;;8.60;57.40;;;;;;4988374;28;20128;-77
2023/11/22 09:25:21;;;;;;;1.60;1.00;;;8.60;57.60;;;;;;4988799;28;20044;-76
2023/11/22 09:27:51;;;;;;;1.60;1.33;;;8.50;57.40;;;;;;5004315;28;20030;-75
2023/11/22 09:33:09;;;;;;;2.53;1.25;;;8.50;56.90;;;;;;4986435;28;20030;-78
2023/11/22 09:35:37;;;;;;;1.02;1.00;;;8.40;56.80;;;;;;5004708;28;20087;-77
2023/11/22 09:38:14;;;;;;;1.48;1.38;;;8.40;56.60;;;;;;4986536;28;20425;-77
2023/11/22 09:40:51;;;;;;;2.15;1.23;;;8.30;56.60;;;;;;5005911;28;20372;-75
2023/11/22 09:43:20;;;;;;;1.02;0.95;;;8.30;56.20;;;;;;5005841;28;20448;-77
2023/11/22 09:45:49;;;;;;;1.35;1.08;;;8.30;56.20;;;;;;5007638;28;20049;-77
2023/11/22 09:48:15;;;;;;;1.48;1.17;;;8.20;56.00;;;;;;5009871;28;20092;-76
2023/11/22 09:50:57;;;;;;;1.60;1.10;;;8.10;56.00;;;;;;5008178;28;20030;-76
2023/11/22 09:53:33;;;;;;;1.10;1.00;;;8.10;56.00;;;;;;5009029;28;20084;-77
2023/11/22 09:56:06;;;;;;;1.08;1.00;;;8.10;55.80;;;;;;5010952;28;20643;-77
2023/11/22 09:58:33;;;;;;;1.33;1.00;;;8.10;55.90;;;;;;5009406;28;20061;-83
2023/11/22 10:01:03;;;;;;;1.13;1.00;;;8.00;56.30;;;;;;5008909;28;20042;-78
2023/11/22 10:03:29;;;;;;;3.20;1.77;;;8.00;55.50;;;;;;5008770;28;20038;-77
2023/11/22 10:05:59;;;;;;;2.25;1.90;;;7.90;55.50;;;;;;5009342;28;20065;-78
2023/11/22 10:08:27;;;;;;;2.53;1.92;;;7.90;55.30;;;;;;5008741;28;20061;-77
2023/11/22 10:10:54;;;;;;;3.03;1.88;;;7.80;55.80;;;;;;5007524;28;20034;-78
2023/11/22 10:13:23;;;;;;;2.47;1.77;;;7.80;56.10;;;;;;5009090;28;20064;-79
2023/11/22 10:15:50;;;;;;;2.35;1.50;;;7.80;56.40;;;;;;5009242;28;20073;-77
2023/11/22 10:18:17;;;;;;;1.88;1.60;;;7.70;56.30;;;;;;5008712;28;20548;-78
2023/11/22 10:20:47;;;;;;;2.15;1.25;;;7.70;56.20;;;;;;5008926;28;20038;-77
2023/11/22 10:23:19;;;;;;;1.30;1.20;;;7.70;56.00;;;;;;5008629;28;20045;-79
2023/11/22 10:25:51;;;;;;;2.45;1.65;;;7.60;56.00;;;;;;5009342;28;20026;-77
2023/11/22 10:28:21;;;;;;;2.15;1.60;;;7.60;55.80;;;;;;5008808;28;20116;-77
2023/11/22 10:30:48;;;;;;;1.30;1.15;;;7.50;55.90;;;;;;5008171;28;20487;-78
2023/11/22 10:33:19;;;;;;;2.33;1.50;;;7.50;56.10;;;;;;5007835;28;20053;-79
2023/11/22 10:35:49;;;;;;;1.95;1.55;;;7.50;56.40;;;;;;5008428;28;20030;-78
2023/11/22 10:38:19;;;;;;;1.67;1.38;;;7.40;56.30;;;;;;5024118;28;20041;-78
2023/11/22 10:40:46;;;;;;;2.33;1.60;;;7.40;56.40;;;;;;5007852;28;20033;-78
2023/11/22 10:43:12;;;;;;;1.60;1.33;;;7.30;56.30;;;;;;5014777;28;20026;-78
2023/11/22 10:45:38;;;;;;;3.20;1.40;;;7.30;56.20;;;;;;5007088;28;20069;-77
2023/11/22 10:48:08;;;;;;;2.53;1.35;;;7.30;56.60;;;;;;5008599;28;20627;-78
2023/11/22 10:50:37;;;;;;;1.40;1.20;;;7.20;56.10;;;;;;5007953;28;20038;-78
2023/11/22 10:53:12;;;;;;;1.92;1.52;;;7.20;56.10;;;;;;5003654;28;20037;-78
2023/11/22 10:55:44;;;;;;;1.85;1.17;;;7.20;56.10;;;;;;5013948;28;20022;-77
2023/11/22 10:58:13;;;;;;;2.10;1.35;;;7.10;56.20;;;;;;5007810;28;20050;-77
2023/11/22 11:00:43;;;;;;;2.13;1.42;;;7.10;56.30;;;;;;5007683;28;20061;-79
2023/11/22 11:03:17;;;;;;;1.40;1.27;;;7.10;56.40;;;;;;5001940;28;20052;-77
2023/11/22 11:05:57;;;;;;;2.30;1.30;;;7.10;56.90;;;;;;5008074;28;20178;-76
2023/11/22 11:08:27;;;;;;;1.75;1.10;;;7.10;57.20;;;;;;5005043;28;20133;-78
2023/11/22 11:10:56;;;;;;;1.30;1.02;;;7.00;57.50;;;;;;4988744;28;20038;-77
2023/11/22 11:13:23;;;;;;;1.77;1.23;;;7.00;57.40;;;;;;5008518;28;20504;-76
2023/11/22 11:15:50;;;;;;;2.10;1.30;;;7.00;57.50;;;;;;5007974;28;20046;-77
2023/11/22 11:18:17;;;;;;;1.20;1.10;;;6.90;57.80;;;;;;5007110;28;20041;-79
2023/11/22 11:20:58;;;;;;;1.73;1.20;;;6.90;57.70;;;;;;5022103;28;20125;-78
2023/11/22 11:23:26;;;;;;;1.35;1.20;;;6.90;57.50;;;;;;5007392;28;20105;-78
2023/11/22 11:25:56;;;;;;;2.08;1.10;;;6.90;57.30;;;;;;5022255;28;20501;-76
2023/11/22 11:28:26;;;;;;;1.40;1.23;;;6.80;56.90;;;;;;5008548;28;20083;-77
2023/11/22 11:30:53;;;;;;;1.77;1.25;;;6.90;57.30;;;;;;5006910;28;20124;-76
2023/11/22 11:33:33;;;;;;;1.33;1.20;;;6.80;59.80;;;;;;5005917;28;20034;-76
2023/11/22 11:36:00;;;;;;;1.80;1.00;;;6.80;59.90;;;;;;5006928;28;20086;-76
2023/11/22 11:38:35;;;;;;;4.13;1.55;;;6.80;59.40;;;;;;5005689;28;20045;-76
2023/11/22 11:41:13;;;;;;;2.65;1.42;;;6.80;58.90;;;;;;5006828;28;20037;-76
2023/11/22 11:43:41;;;;;;;1.67;1.17;;;6.70;58.10;;;;;;5005581;28;20445;-77
2023/11/22 11:46:10;;;;;;;1.95;1.45;;;6.70;57.70;;;;;;5005953;28;20346;-77
2023/11/22 11:48:36;;;;;;;2.42;1.63;;;6.70;57.80;;;;;;5022288;28;20029;-76
2023/11/22 11:51:02;;;;;;;1.48;1.20;;;6.70;57.70;;;;;;5006892;28;20041;-77
2023/11/22 11:53:31;;;;;;;1.52;1.30;;;6.60;57.70;;;;;;5006869;28;20030;-77
2023/11/22 11:55:58;;;;;;;1.40;1.30;;;6.60;57.70;;;;;;5004590;28;20032;-77
2023/11/22 11:58:24;;;;;;;1.98;1.30;;;6.60;57.80;;;;;;5006689;28;20064;-77
2023/11/22 12:00:55;;;;;;;1.38;1.27;;;6.60;57.80;;;;;;5006967;28;20045;-77
2023/11/22 12:03:21;;;;;;;1.88;1.10;;;6.60;58.00;;;;;;5006795;28;20036;-78
2023/11/22 12:05:50;;;;;;;2.33;1.10;;;6.60;57.80;;;;;;5007386;28;20061;-78
2023/11/22 12:08:17;;;;;;;1.88;1.27;;;6.60;57.80;;;;;;5006080;28;20381;-77
2023/11/22 12:10:49;;;;;;;1.27;1.15;;;6.50;57.30;;;;;;5005498;28;20443;-78
2023/11/22 12:13:21;;;;;;;1.30;1.10;;;6.50;57.20;;;;;;5005619;28;20065;-76
2023/11/22 12:15:47;;;;;;;1.33;1.20;;;6.50;57.70;;;;;;5006891;28;20034;-76
2023/11/22 12:18:13;;;;;;;1.27;1.17;;;6.40;56.90;;;;;;5006592;28;20397;-77
2023/11/22 12:20:40;;;;;;;1.30;1.20;;;6.40;57.40;;;;;;5005021;28;20038;-79
2023/11/22 12:23:06;;;;;;;1.25;1.10;;;6.40;57.60;;;;;;5007332;28;20558;-77
2023/11/22 12:25:32;;;;;;;2.47;1.30;;;6.40;57.80;;;;;;5006740;28;20120;-76
2023/11/22 12:27:59;;;;;;;1.58;1.15;;;6.40;58.10;;;;;;5006986;28;20038;-76
2023/11/22 12:30:32;;;;;;;2.53;1.17;;;6.40;58.10;;;;;;5005983;28;20045;-76
2023/11/22 12:33:07;;;;;;;1.73;1.17;;;6.40;57.90;;;;;;5006335;28;20034;-76
2023/11/22 12:35:34;;;;;;;2.05;1.30;;;6.40;57.70;;;;;;5005460;28;20049;-77
2023/11/22 12:38:06;;;;;;;1.52;1.38;;;6.40;57.70;;;;;;5004692;28;20435;-76
2023/11/22 12:40:33;;;;;;;2.50;1.65;;;6.40;58.00;;;;;;5006140;28;20037;-76
2023/11/22 12:43:00;;;;;;;2.42;1.30;;;6.40;57.80;;;;;;5005979;28;20125;-77
2023/11/22 12:45:28;;;;;;;1.58;1.45;;;6.30;57.80;;;;;;5006293;28;20038;-77
2023/11/22 12:47:56;;;;;;;1.80;1.20;;;6.30;58.00;;;;;;5006153;28;20417;-78
2023/11/22 12:50:37;;;;;;;2.08;1.67;;;6.30;57.90;;;;;;5006575;28;20404;-79
2023/11/22 12:53:12;;;;;;;1.45;1.30;;;6.30;58.10;;;;;;5006134;28;20045;-77
2023/11/22 12:55:44;;;;;;;1.60;1.50;;;6.30;58.30;;;;;;5006231;28;20112;-76
2023/11/22 12:58:10;;;;;;;2.78;1.60;;;6.20;58.10;;;;;;5006127;28;20182;-76
2023/11/22 13:00:36;;;;;;;1.65;1.30;;;6.20;58.00;;;;;;5006384;28;20507;-76
2023/11/22 13:03:02;;;;;;;1.42;1.33;;;6.20;58.00;;;;;;5006725;28;20125;-76